Pattimura Airport, Ambon
WAPP : rendu visible

Aérodrome :











RETROUVEZ-NOUS SUR...

 
LOGIN :

S'inscrire | Disclaimer

   EN    FR    IT 

 









Légende :    VFR   VFR Marginal   IFR   IFR Intensif   IFR Très Intensif
Visi : 
Plafond : 
>= 8 km
>= 3000ft
5 à 8 km
1000 à 3000 ft
1500m à 5 km
500 à 1000 ft
800 à 1500m
200 à 500 ft
< 800m
< 200 ft
Symboles :   Orages  Brouillard  Fortes neiges  Fortes précipitations  Vent > 20 kt






- Altitude de l'aérodrome : 33 ft
- Code IATA : AMQ


WAPP - Pattimura , Ambon

DERNIER METAR :
  • 280500Z 34010KT 310V020 9999 FEW019 34/22 Q1005 NOSIG

METARs EXPIRÉS :
  • 280430Z 34012KT 300V020 9999 FEW019 34/22 Q1006 NOSIG
  • 280400Z 35010KT 320V050 9999 FEW019 34/22 Q1006 NOSIG
  • 280330Z 35011KT 310V020 9999 FEW019 34/22 Q1007 NOSIG
  • 280300Z 36009KT 280V040 9999 FEW019 33/22 Q1007 NOSIG
  • 280230Z 35008KT 240V040 9999 FEW019 34/23 Q1007 NOSIG

TAF TAF WAPP
Valide du 28 à 00h jusqu'au 29 à 00h UTC


272300Z 2800/2824 34010KT 9999 FEW018



MET'MAP, la Météo Aéronautique d'un coup d'oeil ! - Copyright ORBIFLY Décembre 2007 - Disclaimer

ORBIFLY MET'MAP TEAM :

Programmation & Développement : Alexandra Zaïnal
Sur une idée originale de : Baudouin d'Aumeries
Assistance à la programmation : Marc-Olivier Méhu
Soutien technique & logistique : Manuel Goepfert

Contact : metmap@orbifly.com




SOURCES & CREDITS :

   NOAA       Earth
Advisory